Dunlay, Texas
Current Conditions -  °F | °C
As of 8:51 PM on Wednesday 22 Oct 2014 (Local Time) from KHDO Reporting Station
Broken Clouds Broken Clouds  
Wind Chill: 73°   Ceiling: 11000
Heat Index: 73°   Visibility: 10mi
Dew Point: 54°   Wind: 6mph
Humidity: 51%   Direction: 70°ENE
Pressure: 30.08"   Gusts: NA
Location:  29.4252°N, 99.1005°W
Report Text: KHDO 230151Z AUTO 07005KT 10SM BKN110 23/12 A3008 RMK AO2 SLP174 T02280122 $
Loading
Personal Weather Stations






























Interactive Weather Map
Tropical Storm Tracking
New forecast layout! Learn more

10-Day Weather Forecast

Advertisements
Track Severe Weather on mobile